sensor_id;sensor_type;location;lat;lon;timestamp;P1;durP1;ratioP1;P2;durP2;ratioP2
50880;SDS011;36858;47.832;-3.800;2022-11-20T00:01:16;1.90;;;0.53;;
50880;SDS011;36858;47.832;-3.800;2022-11-20T00:03:44;1.63;;;1.03;;
50880;SDS011;36858;47.832;-3.800;2022-11-20T00:06:13;3.43;;;0.60;;
50880;SDS011;36858;47.832;-3.800;2022-11-20T00:08:41;2.37;;;0.50;;
50880;SDS011;36858;47.832;-3.800;2022-11-20T00:11:12;1.60;;;0.60;;
50880;SDS011;36858;47.832;-3.800;2022-11-20T00:13:42;2.10;;;0.50;;
50880;SDS011;36858;47.832;-3.800;2022-11-20T00:16:14;2.90;;;0.70;;
50880;SDS011;36858;47.832;-3.800;2022-11-20T00:18:42;3.50;;;0.63;;
50880;SDS011;36858;47.832;-3.800;2022-11-20T00:21:11;3.77;;;0.70;;
50880;SDS011;36858;47.832;-3.800;2022-11-20T00:23:39;0.97;;;0.30;;
50880;SDS011;36858;47.832;-3.800;2022-11-20T00:26:09;1.47;;;0.73;;
50880;SDS011;36858;47.832;-3.800;2022-11-20T00:28:37;2.17;;;0.50;;
50880;SDS011;36858;47.832;-3.800;2022-11-20T00:31:06;2.40;;;0.43;;
50880;SDS011;36858;47.832;-3.800;2022-11-20T00:33:37;0.40;;;0.30;;
50880;SDS011;36858;47.832;-3.800;2022-11-20T00:36:07;2.30;;;0.80;;
50880;SDS011;36858;47.832;-3.800;2022-11-20T00:38:36;1.17;;;0.50;;
50880;SDS011;36858;47.832;-3.800;2022-11-20T00:41:06;3.20;;;0.60;;
50880;SDS011;36858;47.832;-3.800;2022-11-20T00:43:34;2.93;;;0.43;;
50880;SDS011;36858;47.832;-3.800;2022-11-20T00:46:04;3.60;;;0.60;;
50880;SDS011;36858;47.832;-3.800;2022-11-20T00:48:35;4.23;;;0.70;;
50880;SDS011;36858;47.832;-3.800;2022-11-20T00:51:02;0.73;;;0.60;;
50880;SDS011;36858;47.832;-3.800;2022-11-20T00:53:29;0.80;;;0.40;;
50880;SDS011;36858;47.832;-3.800;2022-11-20T00:58:25;1.37;;;0.60;;
50880;SDS011;36858;47.832;-3.800;2022-11-20T01:01:03;0.80;;;0.43;;
50880;SDS011;36858;47.832;-3.800;2022-11-20T01:03:32;1.60;;;0.50;;
50880;SDS011;36858;47.832;-3.800;2022-11-20T01:06:00;1.43;;;0.50;;
50880;SDS011;36858;47.832;-3.800;2022-11-20T01:08:31;2.60;;;0.70;;
50880;SDS011;36858;47.832;-3.800;2022-11-20T01:11:00;0.90;;;0.50;;
50880;SDS011;36858;47.832;-3.800;2022-11-20T01:13:31;2.60;;;0.60;;
50880;SDS011;36858;47.832;-3.800;2022-11-20T01:18:34;3.70;;;0.47;;
50880;SDS011;36858;47.832;-3.800;2022-11-20T01:21:05;2.30;;;0.50;;
50880;SDS011;36858;47.832;-3.800;2022-11-20T01:23:37;2.87;;;0.40;;
50880;SDS011;36858;47.832;-3.800;2022-11-20T01:26:06;1.13;;;0.50;;
50880;SDS011;36858;47.832;-3.800;2022-11-20T01:28:34;1.60;;;0.40;;
50880;SDS011;36858;47.832;-3.800;2022-11-20T01:31:09;1.43;;;0.60;;
50880;SDS011;36858;47.832;-3.800;2022-11-20T01:33:56;0.60;;;0.30;;
50880;SDS011;36858;47.832;-3.800;2022-11-20T01:36:25;1.13;;;0.50;;
50880;SDS011;36858;47.832;-3.800;2022-11-20T01:38:54;3.33;;;0.60;;
50880;SDS011;36858;47.832;-3.800;2022-11-20T01:41:22;3.30;;;1.07;;
50880;SDS011;36858;47.832;-3.800;2022-11-20T01:44:08;2.03;;;0.57;;
50880;SDS011;36858;47.832;-3.800;2022-11-20T01:46:38;1.90;;;0.50;;
50880;SDS011;36858;47.832;-3.800;2022-11-20T01:51:53;1.53;;;0.40;;
50880;SDS011;36858;47.832;-3.800;2022-11-20T01:54:25;3.13;;;0.53;;
50880;SDS011;36858;47.832;-3.800;2022-11-20T01:56:57;1.70;;;0.40;;
50880;SDS011;36858;47.832;-3.800;2022-11-20T01:59:26;1.97;;;0.50;;
50880;SDS011;36858;47.832;-3.800;2022-11-20T02:01:55;1.83;;;0.40;;
50880;SDS011;36858;47.832;-3.800;2022-11-20T02:04:22;3.10;;;0.50;;
50880;SDS011;36858;47.832;-3.800;2022-11-20T02:06:51;1.03;;;0.43;;
50880;SDS011;36858;47.832;-3.800;2022-11-20T02:09:22;1.07;;;0.60;;
50880;SDS011;36858;47.832;-3.800;2022-11-20T02:11:49;3.63;;;0.60;;
50880;SDS011;36858;47.832;-3.800;2022-11-20T02:14:15;1.87;;;0.37;;
50880;SDS011;36858;47.832;-3.800;2022-11-20T02:16:46;2.07;;;0.60;;
50880;SDS011;36858;47.832;-3.800;2022-11-20T02:19:24;4.03;;;0.93;;
50880;SDS011;36858;47.832;-3.800;2022-11-20T02:24:26;2.73;;;0.60;;
50880;SDS011;36858;47.832;-3.800;2022-11-20T02:29:57;2.50;;;0.47;;
50880;SDS011;36858;47.832;-3.800;2022-11-20T02:32:30;1.27;;;0.50;;
50880;SDS011;36858;47.832;-3.800;2022-11-20T02:35:38;1.73;;;0.50;;
50880;SDS011;36858;47.832;-3.800;2022-11-20T02:37:58;3.00;;;0.60;;
50880;SDS011;36858;47.832;-3.800;2022-11-20T02:40:26;3.57;;;0.97;;
50880;SDS011;36858;47.832;-3.800;2022-11-20T02:42:56;2.03;;;0.57;;
50880;SDS011;36858;47.832;-3.800;2022-11-20T02:45:23;2.93;;;0.43;;
50880;SDS011;36858;47.832;-3.800;2022-11-20T02:47:50;2.40;;;0.50;;
50880;SDS011;36858;47.832;-3.800;2022-11-20T02:50:18;1.27;;;0.70;;
50880;SDS011;36858;47.832;-3.800;2022-11-20T02:52:45;0.83;;;0.70;;
50880;SDS011;36858;47.832;-3.800;2022-11-20T02:55:12;2.67;;;0.47;;
50880;SDS011;36858;47.832;-3.800;2022-11-20T02:57:39;0.50;;;0.30;;
50880;SDS011;36858;47.832;-3.800;2022-11-20T03:00:06;0.57;;;0.20;;
50880;SDS011;36858;47.832;-3.800;2022-11-20T03:02:34;0.30;;;0.20;;
50880;SDS011;36858;47.832;-3.800;2022-11-20T03:05:01;2.87;;;0.60;;
50880;SDS011;36858;47.832;-3.800;2022-11-20T03:07:28;1.67;;;1.10;;
50880;SDS011;36858;47.832;-3.800;2022-11-20T03:09:55;1.00;;;0.40;;
50880;SDS011;36858;47.832;-3.800;2022-11-20T03:12:21;2.90;;;0.47;;
50880;SDS011;36858;47.832;-3.800;2022-11-20T03:14:48;2.43;;;0.60;;
50880;SDS011;36858;47.832;-3.800;2022-11-20T03:17:18;0.60;;;0.40;;
50880;SDS011;36858;47.832;-3.800;2022-11-20T03:19:45;1.43;;;0.30;;
50880;SDS011;36858;47.832;-3.800;2022-11-20T03:22:12;1.33;;;0.43;;
50880;SDS011;36858;47.832;-3.800;2022-11-20T03:24:39;3.60;;;0.53;;
50880;SDS011;36858;47.832;-3.800;2022-11-20T03:27:05;1.97;;;0.70;;
50880;SDS011;36858;47.832;-3.800;2022-11-20T03:29:32;1.23;;;0.43;;
50880;SDS011;36858;47.832;-3.800;2022-11-20T03:32:01;2.20;;;0.60;;
50880;SDS011;36858;47.832;-3.800;2022-11-20T03:34:28;2.03;;;0.50;;
50880;SDS011;36858;47.832;-3.800;2022-11-20T03:36:55;1.27;;;0.50;;
50880;SDS011;36858;47.832;-3.800;2022-11-20T03:39:22;1.23;;;0.40;;
50880;SDS011;36858;47.832;-3.800;2022-11-20T03:41:49;5.07;;;0.80;;
50880;SDS011;36858;47.832;-3.800;2022-11-20T03:44:16;2.63;;;0.87;;
50880;SDS011;36858;47.832;-3.800;2022-11-20T03:46:43;1.00;;;0.70;;
50880;SDS011;36858;47.832;-3.800;2022-11-20T03:49:10;3.07;;;0.70;;
50880;SDS011;36858;47.832;-3.800;2022-11-20T03:51:36;2.93;;;0.73;;
50880;SDS011;36858;47.832;-3.800;2022-11-20T03:54:05;4.37;;;1.13;;
50880;SDS011;36858;47.832;-3.800;2022-11-20T03:56:34;5.77;;;1.20;;
50880;SDS011;36858;47.832;-3.800;2022-11-20T03:59:02;2.33;;;1.00;;
50880;SDS011;36858;47.832;-3.800;2022-11-20T04:01:31;3.93;;;0.90;;
50880;SDS011;36858;47.832;-3.800;2022-11-20T04:03:59;8.03;;;1.53;;
50880;SDS011;36858;47.832;-3.800;2022-11-20T04:06:27;5.47;;;1.30;;
50880;SDS011;36858;47.832;-3.800;2022-11-20T04:08:56;3.80;;;1.03;;
50880;SDS011;36858;47.832;-3.800;2022-11-20T04:11:25;4.63;;;1.40;;
50880;SDS011;36858;47.832;-3.800;2022-11-20T04:13:56;3.70;;;1.20;;
50880;SDS011;36858;47.832;-3.800;2022-11-20T04:16:24;6.47;;;2.17;;
50880;SDS011;36858;47.832;-3.800;2022-11-20T04:18:52;7.23;;;2.10;;
50880;SDS011;36858;47.832;-3.800;2022-11-20T04:21:20;6.07;;;1.80;;
50880;SDS011;36858;47.832;-3.800;2022-11-20T04:23:48;6.03;;;2.17;;
50880;SDS011;36858;47.832;-3.800;2022-11-20T04:26:19;7.90;;;1.73;;
50880;SDS011;36858;47.832;-3.800;2022-11-20T04:28:46;5.23;;;1.50;;
50880;SDS011;36858;47.832;-3.800;2022-11-20T04:31:13;7.77;;;1.60;;
50880;SDS011;36858;47.832;-3.800;2022-11-20T04:33:42;5.13;;;1.50;;
50880;SDS011;36858;47.832;-3.800;2022-11-20T04:36:16;11.03;;;2.13;;
50880;SDS011;36858;47.832;-3.800;2022-11-20T04:38:44;6.27;;;1.53;;
50880;SDS011;36858;47.832;-3.800;2022-11-20T04:41:15;6.40;;;1.70;;
50880;SDS011;36858;47.832;-3.800;2022-11-20T04:43:46;6.43;;;1.60;;
50880;SDS011;36858;47.832;-3.800;2022-11-20T04:46:17;7.90;;;1.87;;
50880;SDS011;36858;47.832;-3.800;2022-11-20T04:48:45;8.53;;;1.83;;
50880;SDS011;36858;47.832;-3.800;2022-11-20T04:51:12;9.17;;;2.13;;
50880;SDS011;36858;47.832;-3.800;2022-11-20T04:53:39;8.37;;;1.97;;
50880;SDS011;36858;47.832;-3.800;2022-11-20T04:56:07;11.47;;;1.93;;
50880;SDS011;36858;47.832;-3.800;2022-11-20T04:58:35;8.13;;;2.33;;
50880;SDS011;36858;47.832;-3.800;2022-11-20T05:01:06;8.97;;;2.03;;
50880;SDS011;36858;47.832;-3.800;2022-11-20T05:03:39;8.10;;;1.73;;
50880;SDS011;36858;47.832;-3.800;2022-11-20T05:06:08;7.97;;;1.67;;
50880;SDS011;36858;47.832;-3.800;2022-11-20T05:08:36;6.03;;;1.53;;
50880;SDS011;36858;47.832;-3.800;2022-11-20T05:11:10;9.10;;;1.90;;
50880;SDS011;36858;47.832;-3.800;2022-11-20T05:13:38;6.63;;;1.80;;
50880;SDS011;36858;47.832;-3.800;2022-11-20T05:16:07;6.83;;;1.80;;
50880;SDS011;36858;47.832;-3.800;2022-11-20T05:18:36;11.47;;;2.90;;
50880;SDS011;36858;47.832;-3.800;2022-11-20T05:21:04;10.77;;;2.43;;
50880;SDS011;36858;47.832;-3.800;2022-11-20T05:23:31;7.93;;;2.07;;
50880;SDS011;36858;47.832;-3.800;2022-11-20T05:25:58;8.43;;;1.90;;
50880;SDS011;36858;47.832;-3.800;2022-11-20T05:28:26;10.53;;;2.33;;
50880;SDS011;36858;47.832;-3.800;2022-11-20T05:30:53;9.53;;;1.93;;
50880;SDS011;36858;47.832;-3.800;2022-11-20T05:33:20;8.27;;;2.10;;
50880;SDS011;36858;47.832;-3.800;2022-11-20T05:35:47;11.10;;;3.07;;
50880;SDS011;36858;47.832;-3.800;2022-11-20T05:38:15;9.03;;;2.00;;
50880;SDS011;36858;47.832;-3.800;2022-11-20T05:40:42;8.93;;;2.27;;
50880;SDS011;36858;47.832;-3.800;2022-11-20T05:43:09;6.83;;;1.97;;
50880;SDS011;36858;47.832;-3.800;2022-11-20T05:45:36;8.33;;;2.10;;
50880;SDS011;36858;47.832;-3.800;2022-11-20T05:48:05;11.90;;;2.13;;
50880;SDS011;36858;47.832;-3.800;2022-11-20T05:50:31;7.40;;;1.93;;
50880;SDS011;36858;47.832;-3.800;2022-11-20T05:52:59;8.37;;;1.70;;
50880;SDS011;36858;47.832;-3.800;2022-11-20T05:55:26;9.20;;;2.57;;
50880;SDS011;36858;47.832;-3.800;2022-11-20T05:57:54;8.23;;;1.90;;
50880;SDS011;36858;47.832;-3.800;2022-11-20T06:00:21;5.23;;;1.70;;
50880;SDS011;36858;47.832;-3.800;2022-11-20T06:02:48;10.73;;;2.43;;
50880;SDS011;36858;47.832;-3.800;2022-11-20T06:05:15;7.20;;;1.83;;
50880;SDS011;36858;47.832;-3.800;2022-11-20T06:07:42;13.33;;;2.10;;
50880;SDS011;36858;47.832;-3.800;2022-11-20T06:10:09;12.07;;;2.40;;
50880;SDS011;36858;47.832;-3.800;2022-11-20T06:12:37;6.70;;;2.23;;
50880;SDS011;36858;47.832;-3.800;2022-11-20T06:15:04;7.23;;;1.90;;
50880;SDS011;36858;47.832;-3.800;2022-11-20T06:17:32;7.63;;;2.73;;
50880;SDS011;36858;47.832;-3.800;2022-11-20T06:19:58;8.23;;;2.13;;
50880;SDS011;36858;47.832;-3.800;2022-11-20T06:22:25;9.10;;;2.20;;
50880;SDS011;36858;47.832;-3.800;2022-11-20T06:24:52;7.97;;;1.87;;
50880;SDS011;36858;47.832;-3.800;2022-11-20T06:27:19;10.50;;;2.27;;
50880;SDS011;36858;47.832;-3.800;2022-11-20T06:29:46;7.67;;;1.97;;
50880;SDS011;36858;47.832;-3.800;2022-11-20T06:32:13;8.90;;;2.20;;
50880;SDS011;36858;47.832;-3.800;2022-11-20T06:34:39;6.03;;;1.67;;
50880;SDS011;36858;47.832;-3.800;2022-11-20T06:37:06;6.13;;;1.53;;
50880;SDS011;36858;47.832;-3.800;2022-11-20T06:39:33;6.77;;;1.63;;
50880;SDS011;36858;47.832;-3.800;2022-11-20T06:42:00;5.30;;;2.07;;
50880;SDS011;36858;47.832;-3.800;2022-11-20T06:44:27;8.63;;;1.93;;
50880;SDS011;36858;47.832;-3.800;2022-11-20T06:46:54;12.23;;;2.30;;
50880;SDS011;36858;47.832;-3.800;2022-11-20T06:49:21;6.97;;;1.90;;
50880;SDS011;36858;47.832;-3.800;2022-11-20T06:51:48;7.17;;;1.80;;
50880;SDS011;36858;47.832;-3.800;2022-11-20T06:54:15;7.63;;;1.70;;
50880;SDS011;36858;47.832;-3.800;2022-11-20T06:56:41;7.93;;;2.27;;
50880;SDS011;36858;47.832;-3.800;2022-11-20T06:59:08;6.30;;;1.57;;
50880;SDS011;36858;47.832;-3.800;2022-11-20T07:01:35;8.47;;;2.27;;
50880;SDS011;36858;47.832;-3.800;2022-11-20T07:04:02;6.50;;;1.90;;
50880;SDS011;36858;47.832;-3.800;2022-11-20T07:06:29;7.20;;;1.87;;
50880;SDS011;36858;47.832;-3.800;2022-11-20T07:08:57;6.30;;;1.93;;
50880;SDS011;36858;47.832;-3.800;2022-11-20T07:11:24;7.40;;;1.80;;
50880;SDS011;36858;47.832;-3.800;2022-11-20T07:13:51;10.43;;;2.10;;
50880;SDS011;36858;47.832;-3.800;2022-11-20T07:16:18;8.47;;;2.00;;
50880;SDS011;36858;47.832;-3.800;2022-11-20T07:18:45;7.90;;;1.80;;
50880;SDS011;36858;47.832;-3.800;2022-11-20T07:21:15;12.57;;;2.77;;
50880;SDS011;36858;47.832;-3.800;2022-11-20T07:23:42;8.70;;;2.70;;
50880;SDS011;36858;47.832;-3.800;2022-11-20T07:26:10;10.83;;;3.00;;
50880;SDS011;36858;47.832;-3.800;2022-11-20T07:28:37;12.57;;;2.70;;
50880;SDS011;36858;47.832;-3.800;2022-11-20T07:31:04;9.87;;;2.53;;
50880;SDS011;36858;47.832;-3.800;2022-11-20T07:33:33;10.43;;;1.87;;
50880;SDS011;36858;47.832;-3.800;2022-11-20T07:36:01;9.33;;;2.60;;
50880;SDS011;36858;47.832;-3.800;2022-11-20T07:38:28;12.33;;;2.23;;
50880;SDS011;36858;47.832;-3.800;2022-11-20T07:40:58;10.47;;;1.93;;
50880;SDS011;36858;47.832;-3.800;2022-11-20T07:43:28;9.23;;;2.03;;
50880;SDS011;36858;47.832;-3.800;2022-11-20T07:45:55;11.83;;;2.33;;
50880;SDS011;36858;47.832;-3.800;2022-11-20T07:48:23;8.03;;;2.17;;
50880;SDS011;36858;47.832;-3.800;2022-11-20T07:50:56;9.53;;;2.10;;
50880;SDS011;36858;47.832;-3.800;2022-11-20T07:53:23;7.63;;;2.10;;
50880;SDS011;36858;47.832;-3.800;2022-11-20T07:55:51;12.63;;;2.17;;
50880;SDS011;36858;47.832;-3.800;2022-11-20T07:58:20;6.50;;;1.83;;
50880;SDS011;36858;47.832;-3.800;2022-11-20T08:00:47;7.20;;;2.00;;
50880;SDS011;36858;47.832;-3.800;2022-11-20T08:03:15;6.13;;;1.50;;
50880;SDS011;36858;47.832;-3.800;2022-11-20T08:05:49;7.83;;;2.03;;
50880;SDS011;36858;47.832;-3.800;2022-11-20T08:08:16;8.33;;;2.00;;
50880;SDS011;36858;47.832;-3.800;2022-11-20T08:10:43;3.60;;;1.40;;
50880;SDS011;36858;47.832;-3.800;2022-11-20T08:13:10;7.77;;;1.80;;
50880;SDS011;36858;47.832;-3.800;2022-11-20T08:15:55;6.13;;;2.33;;
50880;SDS011;36858;47.832;-3.800;2022-11-20T08:18:22;5.90;;;1.70;;
50880;SDS011;36858;47.832;-3.800;2022-11-20T08:20:57;6.50;;;1.77;;
50880;SDS011;36858;47.832;-3.800;2022-11-20T08:23:28;10.60;;;1.70;;
50880;SDS011;36858;47.832;-3.800;2022-11-20T08:25:55;7.60;;;1.80;;
50880;SDS011;36858;47.832;-3.800;2022-11-20T08:28:22;7.00;;;1.90;;
50880;SDS011;36858;47.832;-3.800;2022-11-20T08:30:49;8.17;;;1.77;;
50880;SDS011;36858;47.832;-3.800;2022-11-20T08:33:17;6.83;;;2.33;;
50880;SDS011;36858;47.832;-3.800;2022-11-20T08:35:44;8.87;;;2.30;;
50880;SDS011;36858;47.832;-3.800;2022-11-20T08:38:11;8.00;;;1.93;;
50880;SDS011;36858;47.832;-3.800;2022-11-20T08:40:38;9.53;;;2.10;;
50880;SDS011;36858;47.832;-3.800;2022-11-20T08:43:05;5.63;;;2.30;;
50880;SDS011;36858;47.832;-3.800;2022-11-20T08:45:32;11.60;;;2.10;;
50880;SDS011;36858;47.832;-3.800;2022-11-20T08:48:01;10.37;;;2.20;;
50880;SDS011;36858;47.832;-3.800;2022-11-20T08:50:29;8.07;;;2.33;;
50880;SDS011;36858;47.832;-3.800;2022-11-20T08:53:07;15.37;;;3.03;;
50880;SDS011;36858;47.832;-3.800;2022-11-20T08:55:34;5.63;;;1.93;;
50880;SDS011;36858;47.832;-3.800;2022-11-20T08:58:03;11.33;;;3.07;;
50880;SDS011;36858;47.832;-3.800;2022-11-20T09:00:31;13.40;;;2.97;;
50880;SDS011;36858;47.832;-3.800;2022-11-20T09:02:59;11.00;;;2.57;;
50880;SDS011;36858;47.832;-3.800;2022-11-20T09:05:27;16.87;;;2.63;;
50880;SDS011;36858;47.832;-3.800;2022-11-20T09:07:57;11.47;;;2.87;;
50880;SDS011;36858;47.832;-3.800;2022-11-20T09:10:28;13.17;;;4.33;;
50880;SDS011;36858;47.832;-3.800;2022-11-20T09:12:55;12.60;;;3.10;;
50880;SDS011;36858;47.832;-3.800;2022-11-20T09:15:22;18.83;;;3.67;;
50880;SDS011;36858;47.832;-3.800;2022-11-20T09:17:57;20.30;;;3.90;;
50880;SDS011;36858;47.832;-3.800;2022-11-20T09:20:26;12.17;;;2.90;;
50880;SDS011;36858;47.832;-3.800;2022-11-20T09:22:56;15.40;;;4.40;;
50880;SDS011;36858;47.832;-3.800;2022-11-20T09:25:23;16.10;;;4.03;;
50880;SDS011;36858;47.832;-3.800;2022-11-20T09:27:59;19.23;;;4.57;;
50880;SDS011;36858;47.832;-3.800;2022-11-20T09:30:26;16.90;;;3.77;;
50880;SDS011;36858;47.832;-3.800;2022-11-20T09:32:53;21.73;;;5.03;;
50880;SDS011;36858;47.832;-3.800;2022-11-20T09:35:20;16.67;;;4.00;;
50880;SDS011;36858;47.832;-3.800;2022-11-20T09:37:47;15.90;;;4.47;;
50880;SDS011;36858;47.832;-3.800;2022-11-20T09:40:19;17.17;;;4.67;;
50880;SDS011;36858;47.832;-3.800;2022-11-20T09:42:53;22.80;;;5.77;;
50880;SDS011;36858;47.832;-3.800;2022-11-20T09:46:08;19.40;;;4.80;;
50880;SDS011;36858;47.832;-3.800;2022-11-20T09:53:45;11.50;;;3.37;;
50880;SDS011;36858;47.832;-3.800;2022-11-20T09:56:42;18.37;;;4.00;;
50880;SDS011;36858;47.832;-3.800;2022-11-20T09:59:16;12.23;;;3.77;;
50880;SDS011;36858;47.832;-3.800;2022-11-20T10:01:48;18.53;;;3.60;;
50880;SDS011;36858;47.832;-3.800;2022-11-20T10:04:16;15.47;;;4.33;;
50880;SDS011;36858;47.832;-3.800;2022-11-20T10:06:47;14.53;;;3.93;;
50880;SDS011;36858;47.832;-3.800;2022-11-20T10:09:42;16.10;;;4.63;;
50880;SDS011;36858;47.832;-3.800;2022-11-20T10:15:43;12.50;;;3.73;;
50880;SDS011;36858;47.832;-3.800;2022-11-20T10:20:46;11.27;;;3.37;;
50880;SDS011;36858;47.832;-3.800;2022-11-20T10:26:06;15.90;;;3.40;;
50880;SDS011;36858;47.832;-3.800;2022-11-20T10:29:09;16.70;;;3.97;;
50880;SDS011;36858;47.832;-3.800;2022-11-20T10:31:41;16.70;;;4.13;;
50880;SDS011;36858;47.832;-3.800;2022-11-20T10:37:02;18.90;;;4.33;;
50880;SDS011;36858;47.832;-3.800;2022-11-20T10:39:41;19.40;;;4.87;;
50880;SDS011;36858;47.832;-3.800;2022-11-20T10:42:31;14.63;;;3.60;;
50880;SDS011;36858;47.832;-3.800;2022-11-20T10:45:18;14.27;;;3.53;;
50880;SDS011;36858;47.832;-3.800;2022-11-20T10:47:46;16.70;;;3.87;;
50880;SDS011;36858;47.832;-3.800;2022-11-20T10:50:14;15.17;;;3.63;;
50880;SDS011;36858;47.832;-3.800;2022-11-20T10:53:08;15.23;;;4.37;;
50880;SDS011;36858;47.832;-3.800;2022-11-20T10:55:57;12.97;;;4.13;;
50880;SDS011;36858;47.832;-3.800;2022-11-20T11:01:26;13.40;;;3.50;;
50880;SDS011;36858;47.832;-3.800;2022-11-20T11:03:54;16.40;;;3.93;;
50880;SDS011;36858;47.832;-3.800;2022-11-20T11:08:55;13.27;;;3.37;;
50880;SDS011;36858;47.832;-3.800;2022-11-20T11:11:24;13.47;;;3.43;;
50880;SDS011;36858;47.832;-3.800;2022-11-20T11:14:04;11.73;;;3.27;;
50880;SDS011;36858;47.832;-3.800;2022-11-20T11:16:32;18.23;;;3.37;;
50880;SDS011;36858;47.832;-3.800;2022-11-20T11:19:05;12.33;;;3.37;;
50880;SDS011;36858;47.832;-3.800;2022-11-20T11:21:33;16.20;;;3.57;;
50880;SDS011;36858;47.832;-3.800;2022-11-20T11:24:03;12.33;;;2.87;;
50880;SDS011;36858;47.832;-3.800;2022-11-20T11:26:51;12.87;;;3.50;;
50880;SDS011;36858;47.832;-3.800;2022-11-20T11:29:19;11.77;;;3.93;;
50880;SDS011;36858;47.832;-3.800;2022-11-20T11:31:47;13.97;;;3.43;;
50880;SDS011;36858;47.832;-3.800;2022-11-20T11:34:14;15.33;;;3.97;;
50880;SDS011;36858;47.832;-3.800;2022-11-20T11:36:53;15.80;;;3.17;;
50880;SDS011;36858;47.832;-3.800;2022-11-20T11:39:23;14.27;;;3.30;;
50880;SDS011;36858;47.832;-3.800;2022-11-20T11:41:51;13.77;;;3.30;;
50880;SDS011;36858;47.832;-3.800;2022-11-20T11:44:21;17.67;;;2.90;;
50880;SDS011;36858;47.832;-3.800;2022-11-20T11:47:11;17.73;;;2.87;;
50880;SDS011;36858;47.832;-3.800;2022-11-20T11:50:00;16.30;;;3.80;;
50880;SDS011;36858;47.832;-3.800;2022-11-20T11:53:09;16.47;;;3.17;;
50880;SDS011;36858;47.832;-3.800;2022-11-20T11:55:49;11.57;;;3.83;;
50880;SDS011;36858;47.832;-3.800;2022-11-20T12:04:21;16.27;;;2.67;;
50880;SDS011;36858;47.832;-3.800;2022-11-20T12:06:53;16.83;;;3.20;;
50880;SDS011;36858;47.832;-3.800;2022-11-20T12:09:31;14.80;;;3.13;;
50880;SDS011;36858;47.832;-3.800;2022-11-20T12:12:27;14.93;;;2.97;;
50880;SDS011;36858;47.832;-3.800;2022-11-20T12:14:53;13.53;;;2.43;;
50880;SDS011;36858;47.832;-3.800;2022-11-20T12:17:21;12.87;;;2.70;;
50880;SDS011;36858;47.832;-3.800;2022-11-20T12:19:48;14.00;;;3.47;;
50880;SDS011;36858;47.832;-3.800;2022-11-20T12:30:49;9.17;;;2.10;;
50880;SDS011;36858;47.832;-3.800;2022-11-20T12:39:05;10.17;;;2.50;;
50880;SDS011;36858;47.832;-3.800;2022-11-20T12:41:53;12.23;;;2.17;;
50880;SDS011;36858;47.832;-3.800;2022-11-20T12:45:10;10.03;;;2.83;;
50880;SDS011;36858;47.832;-3.800;2022-11-20T13:01:35;10.27;;;2.73;;
50880;SDS011;36858;47.832;-3.800;2022-11-20T13:07:03;9.73;;;2.30;;
50880;SDS011;36858;47.832;-3.800;2022-11-20T13:09:33;10.57;;;2.70;;
50880;SDS011;36858;47.832;-3.800;2022-11-20T13:12:05;11.83;;;2.20;;
50880;SDS011;36858;47.832;-3.800;2022-11-20T13:17:17;7.80;;;2.97;;
50880;SDS011;36858;47.832;-3.800;2022-11-20T13:19:54;13.83;;;2.30;;
50880;SDS011;36858;47.832;-3.800;2022-11-20T13:22:28;8.40;;;1.77;;
50880;SDS011;36858;47.832;-3.800;2022-11-20T13:25:29;8.60;;;2.30;;
50880;SDS011;36858;47.832;-3.800;2022-11-20T13:28:25;9.00;;;2.47;;
50880;SDS011;36858;47.832;-3.800;2022-11-20T13:30:49;11.73;;;2.37;;
50880;SDS011;36858;47.832;-3.800;2022-11-20T13:35:58;13.70;;;2.30;;
50880;SDS011;36858;47.832;-3.800;2022-11-20T13:38:26;11.63;;;2.33;;
50880;SDS011;36858;47.832;-3.800;2022-11-20T13:41:01;9.73;;;2.43;;
50880;SDS011;36858;47.832;-3.800;2022-11-20T13:43:48;9.07;;;2.53;;
50880;SDS011;36858;47.832;-3.800;2022-11-20T13:46:15;10.17;;;2.23;;
50880;SDS011;36858;47.832;-3.800;2022-11-20T13:48:43;11.57;;;2.23;;
50880;SDS011;36858;47.832;-3.800;2022-11-20T13:51:56;10.07;;;1.97;;
50880;SDS011;36858;47.832;-3.800;2022-11-20T13:57:20;7.83;;;2.07;;
50880;SDS011;36858;47.832;-3.800;2022-11-20T14:00:12;11.30;;;2.57;;
50880;SDS011;36858;47.832;-3.800;2022-11-20T14:02:42;9.70;;;1.97;;
50880;SDS011;36858;47.832;-3.800;2022-11-20T14:05:16;9.50;;;2.00;;
50880;SDS011;36858;47.832;-3.800;2022-11-20T14:07:49;15.17;;;3.03;;
50880;SDS011;36858;47.832;-3.800;2022-11-20T14:13:19;10.43;;;2.50;;
50880;SDS011;36858;47.832;-3.800;2022-11-20T14:15:47;10.30;;;2.40;;
50880;SDS011;36858;47.832;-3.800;2022-11-20T14:18:15;12.43;;;2.67;;
50880;SDS011;36858;47.832;-3.800;2022-11-20T14:20:48;10.07;;;2.70;;
50880;SDS011;36858;47.832;-3.800;2022-11-20T14:23:23;11.10;;;3.47;;
50880;SDS011;36858;47.832;-3.800;2022-11-20T14:25:55;9.17;;;3.07;;
50880;SDS011;36858;47.832;-3.800;2022-11-20T14:28:29;12.77;;;2.37;;
50880;SDS011;36858;47.832;-3.800;2022-11-20T14:30:56;15.03;;;3.57;;
50880;SDS011;36858;47.832;-3.800;2022-11-20T14:33:25;13.33;;;2.63;;
50880;SDS011;36858;47.832;-3.800;2022-11-20T14:35:53;14.43;;;2.30;;
50880;SDS011;36858;47.832;-3.800;2022-11-20T14:38:22;15.57;;;4.53;;
50880;SDS011;36858;47.832;-3.800;2022-11-20T14:40:53;10.57;;;2.90;;
50880;SDS011;36858;47.832;-3.800;2022-11-20T14:43:24;16.03;;;3.93;;
50880;SDS011;36858;47.832;-3.800;2022-11-20T14:45:58;17.47;;;3.93;;
50880;SDS011;36858;47.832;-3.800;2022-11-20T14:51:08;17.53;;;3.10;;
50880;SDS011;36858;47.832;-3.800;2022-11-20T14:53:36;15.67;;;3.77;;
50880;SDS011;36858;47.832;-3.800;2022-11-20T14:56:03;12.80;;;3.37;;
50880;SDS011;36858;47.832;-3.800;2022-11-20T14:58:31;19.93;;;3.40;;
50880;SDS011;36858;47.832;-3.800;2022-11-20T15:01:01;12.53;;;3.00;;
50880;SDS011;36858;47.832;-3.800;2022-11-20T15:03:32;10.77;;;2.83;;
50880;SDS011;36858;47.832;-3.800;2022-11-20T15:06:01;12.17;;;2.47;;
50880;SDS011;36858;47.832;-3.800;2022-11-20T15:08:28;15.00;;;2.60;;
50880;SDS011;36858;47.832;-3.800;2022-11-20T15:10:55;8.23;;;2.43;;
50880;SDS011;36858;47.832;-3.800;2022-11-20T15:13:30;11.53;;;3.10;;
50880;SDS011;36858;47.832;-3.800;2022-11-20T15:15:59;12.17;;;3.37;;
50880;SDS011;36858;47.832;-3.800;2022-11-20T15:18:31;14.10;;;3.27;;
50880;SDS011;36858;47.832;-3.800;2022-11-20T15:21:03;11.37;;;2.80;;
50880;SDS011;36858;47.832;-3.800;2022-11-20T15:23:32;15.80;;;2.87;;
50880;SDS011;36858;47.832;-3.800;2022-11-20T15:25:59;14.90;;;2.47;;
50880;SDS011;36858;47.832;-3.800;2022-11-20T15:31:03;9.20;;;2.30;;
50880;SDS011;36858;47.832;-3.800;2022-11-20T15:33:31;15.13;;;2.60;;
50880;SDS011;36858;47.832;-3.800;2022-11-20T15:35:58;14.30;;;3.17;;
50880;SDS011;36858;47.832;-3.800;2022-11-20T15:38:25;9.43;;;3.17;;
50880;SDS011;36858;47.832;-3.800;2022-11-20T15:40:52;13.07;;;3.07;;
50880;SDS011;36858;47.832;-3.800;2022-11-20T15:43:19;16.83;;;3.77;;
50880;SDS011;36858;47.832;-3.800;2022-11-20T15:45:47;10.30;;;2.50;;
50880;SDS011;36858;47.832;-3.800;2022-11-20T15:48:23;13.87;;;2.90;;
50880;SDS011;36858;47.832;-3.800;2022-11-20T15:50:59;10.17;;;2.00;;
50880;SDS011;36858;47.832;-3.800;2022-11-20T15:53:28;9.27;;;2.60;;
50880;SDS011;36858;47.832;-3.800;2022-11-20T15:55:55;13.40;;;3.20;;
50880;SDS011;36858;47.832;-3.800;2022-11-20T15:58:21;13.87;;;3.57;;
50880;SDS011;36858;47.832;-3.800;2022-11-20T16:00:50;10.90;;;2.97;;
50880;SDS011;36858;47.832;-3.800;2022-11-20T16:03:17;11.53;;;3.47;;
50880;SDS011;36858;47.832;-3.800;2022-11-20T16:05:44;11.43;;;2.97;;
50880;SDS011;36858;47.832;-3.800;2022-11-20T16:08:11;16.60;;;4.33;;
50880;SDS011;36858;47.832;-3.800;2022-11-20T16:10:39;13.37;;;3.50;;
50880;SDS011;36858;47.832;-3.800;2022-11-20T16:13:11;17.10;;;4.33;;
50880;SDS011;36858;47.832;-3.800;2022-11-20T16:16:01;11.27;;;3.50;;
50880;SDS011;36858;47.832;-3.800;2022-11-20T16:18:31;11.17;;;3.53;;